Applegate, Michigan
Current Conditions -  °F | °C
As of 9:00 AM on Monday 24 Nov 2014 (Local Time) from CYZR Reporting Station
Overcast Overcast  
Wind Chill: 55°   Ceiling: 3000
Heat Index: 55°   Visibility: 9mi
Dew Point: 52°   Wind: 17mph
Humidity: 88%   Direction: 200°SSW
Pressure: 29.13"   Gusts: 26mph
Location:  43.36°N, 82.64°W
Report Text: CYZR 241400Z AUTO 20015G23KT 9SM SCT013 BKN030 BKN039 OVC085 13/11 A2913 RMK SLP865 DENSITY ALT 1300FT
Loading
Personal Weather Stations






























Interactive Weather Map New forecast layout! Learn more

10-Day Weather Forecast

Advertisements
Track Severe Weather on mobile